Terminal Aerodrome Forecast
Issued by NWS

Home | Current Version | Previous Version | Text Only | Print | Product List | Glossary On
Versions: 1 2 3 4 5 6 7 8 9 10 11 12 13 14 15
565
FTUS43 KLSX 221722
TAFUIN
TAF
KUIN 221722Z 2218/2318 18012G18KT P6SM FEW250
     FM222300 28009KT P6SM VCSH SCT060
     FM230200 32006KT P6SM BKN120=

USA.gov is the U.S. government's official web portal to all federal, state and local government web resources and services.